sensor_id;sensor_type;location;lat;lon;timestamp;pressure;altitude;pressure_sealevel;temperature;humidity
75146;BME280;63641;46.526;24.612;2024-01-06T00:01:14;96876.53;;;0.10;74.15
75146;BME280;63641;46.526;24.612;2024-01-06T00:03:42;96874.91;;;0.09;74.26
75146;BME280;63641;46.526;24.612;2024-01-06T00:06:12;96866.13;;;0.09;74.05
75146;BME280;63641;46.526;24.612;2024-01-06T00:08:39;96857.19;;;0.03;74.10
75146;BME280;63641;46.526;24.612;2024-01-06T00:11:06;96856.63;;;0.01;74.13
75146;BME280;63641;46.526;24.612;2024-01-06T00:13:33;96860.88;;;0.02;73.97
75146;BME280;63641;46.526;24.612;2024-01-06T00:16:00;96872.13;;;0.04;74.37
75146;BME280;63641;46.526;24.612;2024-01-06T00:18:27;96867.00;;;0.03;74.24
75146;BME280;63641;46.526;24.612;2024-01-06T00:20:54;96859.97;;;-0.04;74.10
75146;BME280;63641;46.526;24.612;2024-01-06T00:23:21;96867.09;;;-0.04;74.14
75146;BME280;63641;46.526;24.612;2024-01-06T00:25:48;96861.66;;;-0.09;74.31
75146;BME280;63641;46.526;24.612;2024-01-06T00:28:15;96862.69;;;-0.10;74.29
75146;BME280;63641;46.526;24.612;2024-01-06T00:30:42;96856.78;;;-0.12;73.96
75146;BME280;63641;46.526;24.612;2024-01-06T00:33:08;96860.94;;;-0.16;74.43
75146;BME280;63641;46.526;24.612;2024-01-06T00:35:36;96868.66;;;-0.15;74.02
75146;BME280;63641;46.526;24.612;2024-01-06T00:38:03;96865.66;;;-0.18;74.33
75146;BME280;63641;46.526;24.612;2024-01-06T00:40:29;96869.94;;;-0.17;74.44
75146;BME280;63641;46.526;24.612;2024-01-06T00:42:56;96863.00;;;-0.18;74.39
75146;BME280;63641;46.526;24.612;2024-01-06T00:45:23;96870.63;;;-0.22;74.25
75146;BME280;63641;46.526;24.612;2024-01-06T00:47:50;96868.41;;;-0.25;74.26
75146;BME280;63641;46.526;24.612;2024-01-06T00:50:18;96870.25;;;-0.26;74.04
75146;BME280;63641;46.526;24.612;2024-01-06T00:52:46;96877.25;;;-0.31;74.09
75146;BME280;63641;46.526;24.612;2024-01-06T00:55:13;96884.63;;;-0.33;74.43
75146;BME280;63641;46.526;24.612;2024-01-06T00:57:40;96880.59;;;-0.36;74.27
75146;BME280;63641;46.526;24.612;2024-01-06T01:00:07;96871.22;;;-0.38;74.28
75146;BME280;63641;46.526;24.612;2024-01-06T01:02:34;96857.63;;;-0.49;74.46
75146;BME280;63641;46.526;24.612;2024-01-06T01:05:05;96863.91;;;-0.43;74.66
75146;BME280;63641;46.526;24.612;2024-01-06T01:07:36;96853.97;;;-0.47;74.29
75146;BME280;63641;46.526;24.612;2024-01-06T01:10:03;96841.41;;;-0.59;74.36
75146;BME280;63641;46.526;24.612;2024-01-06T01:12:31;96851.50;;;-0.49;74.69
75146;BME280;63641;46.526;24.612;2024-01-06T01:14:58;96860.44;;;-0.43;74.55
75146;BME280;63641;46.526;24.612;2024-01-06T01:17:25;96849.44;;;-0.47;74.84
75146;BME280;63641;46.526;24.612;2024-01-06T01:19:52;96832.69;;;-0.47;74.83
75146;BME280;63641;46.526;24.612;2024-01-06T01:22:19;96814.97;;;-0.54;74.51
75146;BME280;63641;46.526;24.612;2024-01-06T01:24:46;96822.72;;;-0.52;74.75
75146;BME280;63641;46.526;24.612;2024-01-06T01:27:13;96826.66;;;-0.55;74.62
75146;BME280;63641;46.526;24.612;2024-01-06T01:29:40;96833.44;;;-0.59;74.91
75146;BME280;63641;46.526;24.612;2024-01-06T01:32:07;96847.53;;;-0.58;74.56
75146;BME280;63641;46.526;24.612;2024-01-06T01:34:34;96836.91;;;-0.58;74.95
75146;BME280;63641;46.526;24.612;2024-01-06T01:37:01;96836.69;;;-0.57;75.09
75146;BME280;63641;46.526;24.612;2024-01-06T01:39:28;96838.97;;;-0.60;74.75
75146;BME280;63641;46.526;24.612;2024-01-06T01:41:55;96821.16;;;-0.60;74.80
75146;BME280;63641;46.526;24.612;2024-01-06T01:44:21;96830.56;;;-0.57;74.80
75146;BME280;63641;46.526;24.612;2024-01-06T01:46:48;96820.53;;;-0.55;74.61
75146;BME280;63641;46.526;24.612;2024-01-06T01:49:15;96807.50;;;-0.63;74.97
75146;BME280;63641;46.526;24.612;2024-01-06T01:51:43;96801.47;;;-0.70;74.76
75146;BME280;63641;46.526;24.612;2024-01-06T01:54:11;96819.69;;;-0.56;74.68
75146;BME280;63641;46.526;24.612;2024-01-06T01:56:39;96806.63;;;-0.57;74.86
75146;BME280;63641;46.526;24.612;2024-01-06T01:59:11;96810.69;;;-0.55;74.64
75146;BME280;63641;46.526;24.612;2024-01-06T02:01:41;96804.22;;;-0.59;74.93
75146;BME280;63641;46.526;24.612;2024-01-06T02:04:09;96796.00;;;-0.57;74.86
75146;BME280;63641;46.526;24.612;2024-01-06T02:06:36;96794.22;;;-0.63;74.97
75146;BME280;63641;46.526;24.612;2024-01-06T02:09:03;96786.50;;;-0.65;74.56
75146;BME280;63641;46.526;24.612;2024-01-06T02:11:30;96797.69;;;-0.63;74.69
75146;BME280;63641;46.526;24.612;2024-01-06T02:13:56;96786.38;;;-0.70;74.89
75146;BME280;63641;46.526;24.612;2024-01-06T02:16:23;96803.63;;;-0.61;74.85
75146;BME280;63641;46.526;24.612;2024-01-06T02:18:50;96792.63;;;-0.64;74.94
75146;BME280;63641;46.526;24.612;2024-01-06T02:21:17;96789.97;;;-0.64;75.15
75146;BME280;63641;46.526;24.612;2024-01-06T02:23:44;96793.78;;;-0.60;75.00
75146;BME280;63641;46.526;24.612;2024-01-06T02:26:11;96798.66;;;-0.57;75.22
75146;BME280;63641;46.526;24.612;2024-01-06T02:28:39;96790.94;;;-0.59;74.99
75146;BME280;63641;46.526;24.612;2024-01-06T02:31:06;96797.63;;;-0.56;74.92
75146;BME280;63641;46.526;24.612;2024-01-06T02:33:33;96791.13;;;-0.60;74.99
75146;BME280;63641;46.526;24.612;2024-01-06T02:36:00;96791.75;;;-0.58;75.16
75146;BME280;63641;46.526;24.612;2024-01-06T02:38:27;96796.38;;;-0.54;75.17
75146;BME280;63641;46.526;24.612;2024-01-06T02:40:54;96787.78;;;-0.56;75.23
75146;BME280;63641;46.526;24.612;2024-01-06T02:43:20;96782.28;;;-0.54;75.14
75146;BME280;63641;46.526;24.612;2024-01-06T02:45:49;96778.13;;;-0.50;75.42
75146;BME280;63641;46.526;24.612;2024-01-06T02:48:16;96782.19;;;-0.47;74.96
75146;BME280;63641;46.526;24.612;2024-01-06T02:50:43;96774.59;;;-0.44;75.39
75146;BME280;63641;46.526;24.612;2024-01-06T02:53:10;96769.72;;;-0.47;75.21
75146;BME280;63641;46.526;24.612;2024-01-06T02:55:39;96785.09;;;-0.37;75.49
75146;BME280;63641;46.526;24.612;2024-01-06T02:58:06;96778.31;;;-0.33;75.42
75146;BME280;63641;46.526;24.612;2024-01-06T03:00:33;96775.44;;;-0.32;75.27
75146;BME280;63641;46.526;24.612;2024-01-06T03:03:00;96766.88;;;-0.34;75.40
75146;BME280;63641;46.526;24.612;2024-01-06T03:05:27;96764.22;;;-0.34;75.26
75146;BME280;63641;46.526;24.612;2024-01-06T03:07:54;96763.63;;;-0.36;75.49
75146;BME280;63641;46.526;24.612;2024-01-06T03:10:21;96758.53;;;-0.37;75.63
75146;BME280;63641;46.526;24.612;2024-01-06T03:12:48;96762.16;;;-0.32;75.56
75146;BME280;63641;46.526;24.612;2024-01-06T03:15:15;96764.94;;;-0.27;75.56
75146;BME280;63641;46.526;24.612;2024-01-06T03:17:42;96754.38;;;-0.33;75.17
75146;BME280;63641;46.526;24.612;2024-01-06T03:20:09;96764.34;;;-0.29;75.58
75146;BME280;63641;46.526;24.612;2024-01-06T03:22:36;96753.94;;;-0.30;75.46
75146;BME280;63641;46.526;24.612;2024-01-06T03:25:05;96758.72;;;-0.20;75.70
75146;BME280;63641;46.526;24.612;2024-01-06T03:27:32;96763.00;;;-0.19;75.48
75146;BME280;63641;46.526;24.612;2024-01-06T03:30:00;96759.31;;;-0.18;75.44
75146;BME280;63641;46.526;24.612;2024-01-06T03:32:27;96758.84;;;-0.15;75.70
75146;BME280;63641;46.526;24.612;2024-01-06T03:34:55;96756.78;;;-0.13;75.63
75146;BME280;63641;46.526;24.612;2024-01-06T03:37:22;96754.13;;;-0.13;75.57
75146;BME280;63641;46.526;24.612;2024-01-06T03:39:49;96762.22;;;-0.08;75.75
75146;BME280;63641;46.526;24.612;2024-01-06T03:42:16;96756.44;;;-0.05;75.53
75146;BME280;63641;46.526;24.612;2024-01-06T03:44:42;96752.53;;;-0.03;75.60
75146;BME280;63641;46.526;24.612;2024-01-06T03:47:09;96751.28;;;0.00;75.88
75146;BME280;63641;46.526;24.612;2024-01-06T03:49:36;96743.84;;;0.02;75.83
75146;BME280;63641;46.526;24.612;2024-01-06T03:52:03;96738.28;;;0.04;75.76
75146;BME280;63641;46.526;24.612;2024-01-06T03:54:30;96736.47;;;0.04;75.78
75146;BME280;63641;46.526;24.612;2024-01-06T03:56:57;96744.22;;;0.06;75.74
75146;BME280;63641;46.526;24.612;2024-01-06T03:59:24;96733.34;;;0.07;75.55
75146;BME280;63641;46.526;24.612;2024-01-06T04:01:51;96750.59;;;0.16;75.87
75146;BME280;63641;46.526;24.612;2024-01-06T04:04:17;96726.31;;;0.13;75.83
75146;BME280;63641;46.526;24.612;2024-01-06T04:06:44;96737.41;;;0.21;75.83
75146;BME280;63641;46.526;24.612;2024-01-06T04:09:11;96752.69;;;0.26;76.02
75146;BME280;63641;46.526;24.612;2024-01-06T04:11:39;96750.03;;;0.26;76.00
75146;BME280;63641;46.526;24.612;2024-01-06T04:14:06;96750.97;;;0.32;76.01
75146;BME280;63641;46.526;24.612;2024-01-06T04:16:34;96742.75;;;0.33;76.09
75146;BME280;63641;46.526;24.612;2024-01-06T04:19:01;96749.44;;;0.36;75.85
75146;BME280;63641;46.526;24.612;2024-01-06T04:21:28;96754.31;;;0.39;76.19
75146;BME280;63641;46.526;24.612;2024-01-06T04:23:54;96754.66;;;0.42;76.30
75146;BME280;63641;46.526;24.612;2024-01-06T04:26:22;96754.78;;;0.47;75.90
75146;BME280;63641;46.526;24.612;2024-01-06T04:28:49;96758.13;;;0.55;76.24
75146;BME280;63641;46.526;24.612;2024-01-06T04:31:16;96754.66;;;0.54;76.13
75146;BME280;63641;46.526;24.612;2024-01-06T04:33:43;96749.34;;;0.54;76.00
75146;BME280;63641;46.526;24.612;2024-01-06T04:36:10;96749.34;;;0.54;76.14
75146;BME280;63641;46.526;24.612;2024-01-06T04:38:37;96746.22;;;0.57;76.26
75146;BME280;63641;46.526;24.612;2024-01-06T04:41:03;96742.66;;;0.63;76.21
75146;BME280;63641;46.526;24.612;2024-01-06T04:43:30;96737.66;;;0.67;76.38
75146;BME280;63641;46.526;24.612;2024-01-06T04:45:57;96721.34;;;0.63;76.21
75146;BME280;63641;46.526;24.612;2024-01-06T04:48:24;96719.59;;;0.69;76.41
75146;BME280;63641;46.526;24.612;2024-01-06T04:50:51;96715.56;;;0.66;76.28
75146;BME280;63641;46.526;24.612;2024-01-06T04:53:19;96705.38;;;0.63;76.56
75146;BME280;63641;46.526;24.612;2024-01-06T04:55:46;96724.47;;;0.72;76.50
75146;BME280;63641;46.526;24.612;2024-01-06T04:58:12;96710.09;;;0.73;76.10
75146;BME280;63641;46.526;24.612;2024-01-06T05:00:39;96712.88;;;0.78;75.95
75146;BME280;63641;46.526;24.612;2024-01-06T05:03:06;96707.31;;;0.80;76.35
75146;BME280;63641;46.526;24.612;2024-01-06T05:05:33;96702.78;;;0.80;76.14
75146;BME280;63641;46.526;24.612;2024-01-06T05:08:00;96714.13;;;0.87;76.13
75146;BME280;63641;46.526;24.612;2024-01-06T05:10:27;96726.19;;;0.90;76.07
75146;BME280;63641;46.526;24.612;2024-01-06T05:12:54;96711.72;;;0.86;76.21
75146;BME280;63641;46.526;24.612;2024-01-06T05:15:21;96702.09;;;0.85;76.21
75146;BME280;63641;46.526;24.612;2024-01-06T05:17:48;96718.75;;;0.92;76.48
75146;BME280;63641;46.526;24.612;2024-01-06T05:20:15;96715.88;;;0.93;76.44
75146;BME280;63641;46.526;24.612;2024-01-06T05:22:41;96721.53;;;0.97;76.15
75146;BME280;63641;46.526;24.612;2024-01-06T05:25:08;96725.25;;;0.96;76.34
75146;BME280;63641;46.526;24.612;2024-01-06T05:27:36;96732.53;;;1.01;76.36
75146;BME280;63641;46.526;24.612;2024-01-06T05:30:03;96695.25;;;0.89;76.15
75146;BME280;63641;46.526;24.612;2024-01-06T05:32:30;96714.78;;;1.06;76.27
75146;BME280;63641;46.526;24.612;2024-01-06T05:34:57;96711.91;;;1.08;76.20
75146;BME280;63641;46.526;24.612;2024-01-06T05:37:24;96695.22;;;1.01;76.16
75146;BME280;63641;46.526;24.612;2024-01-06T05:39:51;96710.59;;;1.10;76.43
75146;BME280;63641;46.526;24.612;2024-01-06T05:42:18;96704.72;;;1.08;76.39
75146;BME280;63641;46.526;24.612;2024-01-06T05:44:45;96707.47;;;1.13;76.32
75146;BME280;63641;46.526;24.612;2024-01-06T05:47:12;96689.28;;;1.10;76.11
75146;BME280;63641;46.526;24.612;2024-01-06T05:49:41;96705.47;;;1.20;76.22
75146;BME280;63641;46.526;24.612;2024-01-06T05:52:10;96691.94;;;1.22;76.27
75146;BME280;63641;46.526;24.612;2024-01-06T05:54:40;96692.81;;;1.28;75.98
75146;BME280;63641;46.526;24.612;2024-01-06T05:57:08;96700.69;;;1.34;75.90
75146;BME280;63641;46.526;24.612;2024-01-06T05:59:35;96699.63;;;1.35;75.91
75146;BME280;63641;46.526;24.612;2024-01-06T06:02:02;96698.28;;;1.33;75.92
75146;BME280;63641;46.526;24.612;2024-01-06T06:04:28;96707.41;;;1.37;75.83
75146;BME280;63641;46.526;24.612;2024-01-06T06:06:55;96699.06;;;1.33;76.03
75146;BME280;63641;46.526;24.612;2024-01-06T06:09:27;96692.69;;;1.34;75.91
75146;BME280;63641;46.526;24.612;2024-01-06T06:11:55;96698.03;;;1.34;75.84
75146;BME280;63641;46.526;24.612;2024-01-06T06:14:21;96692.94;;;1.33;76.03
75146;BME280;63641;46.526;24.612;2024-01-06T06:16:51;96706.81;;;1.35;76.38
75146;BME280;63641;46.526;24.612;2024-01-06T06:19:18;96704.50;;;1.38;76.23
75146;BME280;63641;46.526;24.612;2024-01-06T06:21:45;96701.09;;;1.43;76.01
75146;BME280;63641;46.526;24.612;2024-01-06T06:24:13;96694.75;;;1.44;76.15
75146;BME280;63641;46.526;24.612;2024-01-06T06:26:40;96686.56;;;1.34;76.03
75146;BME280;63641;46.526;24.612;2024-01-06T06:29:07;96690.22;;;1.44;75.93
75146;BME280;63641;46.526;24.612;2024-01-06T06:31:35;96694.25;;;1.47;75.78
75146;BME280;63641;46.526;24.612;2024-01-06T06:34:02;96686.50;;;1.45;76.23
75146;BME280;63641;46.526;24.612;2024-01-06T06:36:33;96690.78;;;1.47;76.00
75146;BME280;63641;46.526;24.612;2024-01-06T06:39:00;96687.88;;;1.48;76.04
75146;BME280;63641;46.526;24.612;2024-01-06T06:41:27;96688.56;;;1.55;75.97
75146;BME280;63641;46.526;24.612;2024-01-06T06:43:53;96684.34;;;1.59;76.00
75146;BME280;63641;46.526;24.612;2024-01-06T06:46:20;96678.22;;;1.59;76.14
75146;BME280;63641;46.526;24.612;2024-01-06T06:48:47;96683.78;;;1.57;75.74
75146;BME280;63641;46.526;24.612;2024-01-06T06:51:14;96676.81;;;1.56;76.25
75146;BME280;63641;46.526;24.612;2024-01-06T06:53:41;96681.28;;;1.67;75.99
75146;BME280;63641;46.526;24.612;2024-01-06T06:56:08;96675.38;;;1.65;76.01
75146;BME280;63641;46.526;24.612;2024-01-06T06:58:34;96681.88;;;1.69;76.02
75146;BME280;63641;46.526;24.612;2024-01-06T07:01:02;96675.97;;;1.67;76.10
75146;BME280;63641;46.526;24.612;2024-01-06T07:03:29;96680.72;;;1.65;76.03
75146;BME280;63641;46.526;24.612;2024-01-06T07:05:56;96675.16;;;1.67;76.24
75146;BME280;63641;46.526;24.612;2024-01-06T07:08:22;96686.69;;;1.73;76.16
75146;BME280;63641;46.526;24.612;2024-01-06T07:10:49;96688.00;;;1.70;76.01
75146;BME280;63641;46.526;24.612;2024-01-06T07:13:16;96687.03;;;1.76;75.95
75146;BME280;63641;46.526;24.612;2024-01-06T07:15:43;96683.34;;;1.77;76.13
75146;BME280;63641;46.526;24.612;2024-01-06T07:18:10;96684.47;;;1.81;75.97
75146;BME280;63641;46.526;24.612;2024-01-06T07:20:37;96674.69;;;1.87;75.94
75146;BME280;63641;46.526;24.612;2024-01-06T07:23:04;96686.25;;;1.92;76.35
75146;BME280;63641;46.526;24.612;2024-01-06T07:25:31;96681.47;;;1.94;75.79
75146;BME280;63641;46.526;24.612;2024-01-06T07:27:57;96678.91;;;2.00;75.72
75146;BME280;63641;46.526;24.612;2024-01-06T07:30:25;96668.06;;;2.06;75.73
75146;BME280;63641;46.526;24.612;2024-01-06T07:32:52;96670.75;;;2.06;75.76
75146;BME280;63641;46.526;24.612;2024-01-06T07:35:19;96663.88;;;2.10;75.72
75146;BME280;63641;46.526;24.612;2024-01-06T07:37:45;96662.56;;;2.13;75.45
75146;BME280;63641;46.526;24.612;2024-01-06T07:40:13;96652.13;;;2.11;75.67
75146;BME280;63641;46.526;24.612;2024-01-06T07:42:43;96655.34;;;2.13;75.44
75146;BME280;63641;46.526;24.612;2024-01-06T07:45:10;96648.50;;;2.17;75.73
75146;BME280;63641;46.526;24.612;2024-01-06T07:47:37;96667.56;;;2.26;75.66
75146;BME280;63641;46.526;24.612;2024-01-06T07:50:05;96668.13;;;2.28;75.51
75146;BME280;63641;46.526;24.612;2024-01-06T07:52:33;96667.63;;;2.31;75.34
75146;BME280;63641;46.526;24.612;2024-01-06T07:54:59;96669.91;;;2.39;75.58
75146;BME280;63641;46.526;24.612;2024-01-06T07:57:26;96672.63;;;2.45;75.13
75146;BME280;63641;46.526;24.612;2024-01-06T07:59:53;96670.03;;;2.50;75.57
75146;BME280;63641;46.526;24.612;2024-01-06T08:02:20;96661.31;;;2.54;75.40
75146;BME280;63641;46.526;24.612;2024-01-06T08:04:47;96659.50;;;2.60;75.29
75146;BME280;63641;46.526;24.612;2024-01-06T08:07:13;96656.66;;;2.66;75.29
75146;BME280;63641;46.526;24.612;2024-01-06T08:09:40;96658.25;;;2.67;75.07
75146;BME280;63641;46.526;24.612;2024-01-06T08:12:09;96669.34;;;2.76;75.21
75146;BME280;63641;46.526;24.612;2024-01-06T08:14:36;96659.78;;;2.80;75.06
75146;BME280;63641;46.526;24.612;2024-01-06T08:17:03;96659.06;;;2.90;75.14
75146;BME280;63641;46.526;24.612;2024-01-06T08:19:30;96650.84;;;2.92;74.91
75146;BME280;63641;46.526;24.612;2024-01-06T08:21:59;96652.00;;;3.01;75.03
75146;BME280;63641;46.526;24.612;2024-01-06T08:24:26;96649.63;;;3.04;75.09
75146;BME280;63641;46.526;24.612;2024-01-06T08:26:53;96650.81;;;3.13;74.92
75146;BME280;63641;46.526;24.612;2024-01-06T08:29:20;96638.81;;;3.16;74.65
75146;BME280;63641;46.526;24.612;2024-01-06T08:31:46;96646.94;;;3.26;74.94
75146;BME280;63641;46.526;24.612;2024-01-06T08:34:14;96647.81;;;3.32;74.99
75146;BME280;63641;46.526;24.612;2024-01-06T08:36:41;96644.91;;;3.38;74.81
75146;BME280;63641;46.526;24.612;2024-01-06T08:39:08;96627.56;;;3.41;74.86
75146;BME280;63641;46.526;24.612;2024-01-06T08:41:35;96633.56;;;3.53;74.78
75146;BME280;63641;46.526;24.612;2024-01-06T08:44:02;96636.63;;;3.62;74.79
75146;BME280;63641;46.526;24.612;2024-01-06T08:46:29;96627.56;;;3.68;74.74
75146;BME280;63641;46.526;24.612;2024-01-06T08:48:56;96628.16;;;3.75;74.71
75146;BME280;63641;46.526;24.612;2024-01-06T08:51:23;96625.03;;;3.83;75.06
75146;BME280;63641;46.526;24.612;2024-01-06T08:53:50;96622.94;;;3.91;74.65
75146;BME280;63641;46.526;24.612;2024-01-06T08:56:17;96627.25;;;3.97;74.49
75146;BME280;63641;46.526;24.612;2024-01-06T08:58:44;96624.06;;;4.00;74.66
75146;BME280;63641;46.526;24.612;2024-01-06T09:01:11;96631.13;;;4.11;74.85
75146;BME280;63641;46.526;24.612;2024-01-06T09:03:40;96618.31;;;4.18;74.66
75146;BME280;63641;46.526;24.612;2024-01-06T09:06:07;96621.38;;;4.32;74.26
75146;BME280;63641;46.526;24.612;2024-01-06T09:08:33;96616.06;;;4.42;74.10
75146;BME280;63641;46.526;24.612;2024-01-06T09:11:00;96611.84;;;4.56;73.75
75146;BME280;63641;46.526;24.612;2024-01-06T09:13:27;96609.25;;;4.72;73.83
75146;BME280;63641;46.526;24.612;2024-01-06T09:15:54;96608.75;;;4.85;73.39
75146;BME280;63641;46.526;24.612;2024-01-06T09:18:22;96606.69;;;4.97;73.01
75146;BME280;63641;46.526;24.612;2024-01-06T09:20:50;96595.44;;;5.11;72.87
75146;BME280;63641;46.526;24.612;2024-01-06T09:23:17;96596.56;;;5.25;72.64
75146;BME280;63641;46.526;24.612;2024-01-06T09:25:46;96593.38;;;5.38;72.38
75146;BME280;63641;46.526;24.612;2024-01-06T09:28:16;96585.59;;;5.47;72.19
75146;BME280;63641;46.526;24.612;2024-01-06T09:30:42;96593.13;;;5.65;72.00
75146;BME280;63641;46.526;24.612;2024-01-06T09:33:09;96582.94;;;5.77;71.94
75146;BME280;63641;46.526;24.612;2024-01-06T09:35:36;96583.50;;;5.95;71.67
75146;BME280;63641;46.526;24.612;2024-01-06T09:38:03;96586.97;;;6.11;71.59
75146;BME280;63641;46.526;24.612;2024-01-06T09:40:31;96584.56;;;6.19;71.35
75146;BME280;63641;46.526;24.612;2024-01-06T09:42:58;96563.88;;;6.30;71.06
75146;BME280;63641;46.526;24.612;2024-01-06T09:45:25;96566.50;;;6.45;70.95
75146;BME280;63641;46.526;24.612;2024-01-06T09:47:54;96562.72;;;6.57;70.81
75146;BME280;63641;46.526;24.612;2024-01-06T09:50:22;96569.13;;;6.66;70.59
75146;BME280;63641;46.526;24.612;2024-01-06T09:52:49;96562.06;;;6.80;70.45
75146;BME280;63641;46.526;24.612;2024-01-06T09:55:24;96558.50;;;6.95;70.01
75146;BME280;63641;46.526;24.612;2024-01-06T09:57:54;96550.69;;;7.04;69.91
75146;BME280;63641;46.526;24.612;2024-01-06T10:00:22;96552.50;;;7.13;69.66
75146;BME280;63641;46.526;24.612;2024-01-06T10:02:49;96545.97;;;7.24;69.47
75146;BME280;63641;46.526;24.612;2024-01-06T10:05:17;96543.78;;;7.32;69.36
75146;BME280;63641;46.526;24.612;2024-01-06T10:07:45;96541.88;;;7.37;69.23
75146;BME280;63641;46.526;24.612;2024-01-06T10:10:13;96546.34;;;7.47;69.06
75146;BME280;63641;46.526;24.612;2024-01-06T10:12:43;96530.69;;;7.54;68.83
75146;BME280;63641;46.526;24.612;2024-01-06T10:15:11;96520.16;;;7.58;68.62
75146;BME280;63641;46.526;24.612;2024-01-06T10:17:39;96530.81;;;7.73;68.44
75146;BME280;63641;46.526;24.612;2024-01-06T10:20:11;96525.06;;;7.85;67.94
75146;BME280;63641;46.526;24.612;2024-01-06T10:22:41;96522.28;;;7.95;67.64
75146;BME280;63641;46.526;24.612;2024-01-06T10:25:09;96515.47;;;8.03;67.27
75146;BME280;63641;46.526;24.612;2024-01-06T10:27:38;96510.28;;;8.11;66.35
75146;BME280;63641;46.526;24.612;2024-01-06T10:30:09;96501.88;;;8.13;65.73
75146;BME280;63641;46.526;24.612;2024-01-06T10:32:37;96505.28;;;8.23;65.23
75146;BME280;63641;46.526;24.612;2024-01-06T10:35:04;96506.53;;;8.31;64.90
75146;BME280;63641;46.526;24.612;2024-01-06T10:37:33;96509.47;;;8.35;64.50
75146;BME280;63641;46.526;24.612;2024-01-06T10:40:11;96495.38;;;8.43;64.01
75146;BME280;63641;46.526;24.612;2024-01-06T10:42:40;96489.09;;;8.53;63.84
75146;BME280;63641;46.526;24.612;2024-01-06T10:45:08;96493.03;;;8.60;63.17
75146;BME280;63641;46.526;24.612;2024-01-06T10:47:37;96493.41;;;8.73;62.75
75146;BME280;63641;46.526;24.612;2024-01-06T10:50:05;96476.88;;;8.79;62.15
75146;BME280;63641;46.526;24.612;2024-01-06T10:52:32;96484.19;;;8.98;61.42
75146;BME280;63641;46.526;24.612;2024-01-06T10:54:59;96480.69;;;9.16;61.05
75146;BME280;63641;46.526;24.612;2024-01-06T10:57:27;96470.16;;;9.33;60.00
75146;BME280;63641;46.526;24.612;2024-01-06T10:59:57;96469.66;;;9.50;59.75
75146;BME280;63641;46.526;24.612;2024-01-06T11:02:25;96460.97;;;9.67;59.31
75146;BME280;63641;46.526;24.612;2024-01-06T11:04:53;96452.81;;;9.86;58.77
75146;BME280;63641;46.526;24.612;2024-01-06T11:07:22;96457.06;;;10.06;58.41
75146;BME280;63641;46.526;24.612;2024-01-06T11:10:10;96453.53;;;10.19;58.02
75146;BME280;63641;46.526;24.612;2024-01-06T11:12:38;96446.06;;;10.30;57.69
75146;BME280;63641;46.526;24.612;2024-01-06T11:15:05;96446.78;;;10.35;57.47
75146;BME280;63641;46.526;24.612;2024-01-06T11:17:52;96448.25;;;10.42;57.37
75146;BME280;63641;46.526;24.612;2024-01-06T11:20:21;96433.06;;;10.46;57.18
75146;BME280;63641;46.526;24.612;2024-01-06T11:22:49;96429.25;;;10.47;57.10
75146;BME280;63641;46.526;24.612;2024-01-06T11:25:18;96430.44;;;10.54;56.47
75146;BME280;63641;46.526;24.612;2024-01-06T11:27:48;96424.72;;;10.56;56.53
75146;BME280;63641;46.526;24.612;2024-01-06T11:30:26;96425.41;;;10.61;56.35
75146;BME280;63641;46.526;24.612;2024-01-06T11:32:56;96422.91;;;10.65;56.29
75146;BME280;63641;46.526;24.612;2024-01-06T11:35:26;96415.06;;;10.63;55.83
75146;BME280;63641;46.526;24.612;2024-01-06T11:38:00;96414.38;;;10.72;55.68
75146;BME280;63641;46.526;24.612;2024-01-06T11:40:35;96412.94;;;10.74;55.60
75146;BME280;63641;46.526;24.612;2024-01-06T11:43:07;96412.06;;;10.79;55.48
75146;BME280;63641;46.526;24.612;2024-01-06T11:45:36;96407.84;;;10.86;55.18
75146;BME280;63641;46.526;24.612;2024-01-06T11:48:08;96404.81;;;10.88;55.17
75146;BME280;63641;46.526;24.612;2024-01-06T11:50:37;96406.31;;;10.94;55.22
75146;BME280;63641;46.526;24.612;2024-01-06T11:53:06;96401.38;;;10.96;54.90
75146;BME280;63641;46.526;24.612;2024-01-06T11:55:34;96387.53;;;10.98;54.52
75146;BME280;63641;46.526;24.612;2024-01-06T11:58:01;96386.75;;;10.97;54.31
75146;BME280;63641;46.526;24.612;2024-01-06T12:00:32;96393.34;;;11.05;54.15
75146;BME280;63641;46.526;24.612;2024-01-06T12:03:00;96394.31;;;11.09;54.60
75146;BME280;63641;46.526;24.612;2024-01-06T12:05:28;96389.09;;;11.12;54.12
75146;BME280;63641;46.526;24.612;2024-01-06T12:07:57;96391.16;;;11.16;53.86
75146;BME280;63641;46.526;24.612;2024-01-06T12:10:26;96387.66;;;11.15;53.73
75146;BME280;63641;46.526;24.612;2024-01-06T12:13:00;96396.75;;;11.19;53.13
75146;BME280;63641;46.526;24.612;2024-01-06T12:15:30;96382.13;;;11.20;52.84
75146;BME280;63641;46.526;24.612;2024-01-06T12:17:58;96375.94;;;11.20;53.00
75146;BME280;63641;46.526;24.612;2024-01-06T12:20:26;96378.81;;;11.23;53.09
75146;BME280;63641;46.526;24.612;2024-01-06T12:22:55;96386.94;;;11.23;53.40
75146;BME280;63641;46.526;24.612;2024-01-06T12:25:23;96376.28;;;11.27;53.14
75146;BME280;63641;46.526;24.612;2024-01-06T12:27:52;96380.78;;;11.31;53.01
75146;BME280;63641;46.526;24.612;2024-01-06T12:30:22;96369.81;;;11.36;52.61
75146;BME280;63641;46.526;24.612;2024-01-06T12:32:50;96369.19;;;11.40;52.49
75146;BME280;63641;46.526;24.612;2024-01-06T12:35:20;96368.06;;;11.41;52.28
75146;BME280;63641;46.526;24.612;2024-01-06T12:37:48;96374.66;;;11.48;52.21
75146;BME280;63641;46.526;24.612;2024-01-06T12:40:15;96369.41;;;11.52;51.97
75146;BME280;63641;46.526;24.612;2024-01-06T12:42:44;96366.41;;;11.53;52.05
75146;BME280;63641;46.526;24.612;2024-01-06T12:45:12;96372.00;;;11.57;52.27
75146;BME280;63641;46.526;24.612;2024-01-06T12:47:39;96364.53;;;11.63;52.18
75146;BME280;63641;46.526;24.612;2024-01-06T12:50:08;96363.72;;;11.62;52.31
75146;BME280;63641;46.526;24.612;2024-01-06T12:52:35;96359.28;;;11.66;52.46
75146;BME280;63641;46.526;24.612;2024-01-06T12:55:02;96356.56;;;11.66;52.48
75146;BME280;63641;46.526;24.612;2024-01-06T12:57:30;96359.00;;;11.68;52.19